Data for 03/03/2009

Time Sea-Level Adjusted Pressure Absolute Pressure Temperature Relative Humidity Dew Point   
(mb) (inHg) (mb) (inHg) (C) (F) (%) (C) (F)
00:05 1010 29.83 840 24.81 9.4 48.9 45 -1.8 28.7
00:10 1011 29.85 840 24.81 9.1 48.4 46 -1.8 28.7
00:15 1011 29.85 840 24.81 8.9 48.1 46 -1.9 28.6
00:20 1011 29.85 840 24.81 9 48.2 46 -1.9 28.5
00:25 1010 29.83 839 24.78 9.1 48.4 41 -3.4 25.9
00:30 1010 29.83 839 24.78 10.2 50.3 44 -1.5 29.2
00:35 1010 29.83 839 24.78 9.2 48.5 44 -2.4 27.7
00:40 1010 29.83 839 24.78 9.5 49 42 -2.7 27.2
00:45 1010 29.83 839 24.78 9.3 48.8 46 -1.8 28.8
00:50 1010 29.83 839 24.78 9.1 48.3 46 -2 28.4
00:55 1010 29.83 839 24.78 9.1 48.3 45 -2.3 27.9
01:00 1010 29.83 839 24.78 9.3 48.7 43 -2.8 27
01:05 1010 29.83 839 24.78 10.3 50.6 39 -3 26.7
01:10 1010 29.83 839 24.78 10.2 50.3 41 -2.5 27.5
01:15 1010 29.83 839 24.78 10.2 50.3 40 -2.7 27.2
01:20 1010 29.83 839 24.78 10.1 50.2 43 -2 28.4
01:25 1010 29.83 839 24.78 9.9 49.8 40 -3.1 26.4
01:30 1010 29.83 839 24.78 10.6 51.1 38 -3.1 26.4
01:35 1010 29.83 839 24.78 10.8 51.4 40 -2.3 27.8
01:40 1010 29.83 839 24.78 10.4 50.8 40 -2.7 27.2
01:45 1010 29.83 839 24.78 10.3 50.5 43 -1.8 28.7
01:50 1010 29.83 839 24.78 9.6 49.3 43 -2.2 28.1
01:55 1010 29.83 839 24.78 9.8 49.6 40 -3 26.6
02:00 1010 29.83 839 24.78 10 50 42 -2.3 27.8
02:05 1010 29.83 839 24.78 9.6 49.3 45 -1.7 28.9
02:10 1010 29.83 839 24.78 9.1 48.4 44 -2.4 27.7
02:15 1010 29.83 840 24.81 9.8 49.7 39 -3.6 25.5
02:20 1010 29.83 840 24.81 10.2 50.4 41 -2.4 27.8
02:25 1010 29.83 840 24.81 9.9 49.8 41 -2.8 26.9
02:30 1010 29.83 840 24.81 10.4 50.7 40 -2.8 27
02:35 1010 29.83 839 24.78 10.7 51.3 37 -3.4 25.9
02:40 1010 29.83 839 24.78 11 51.8 37 -3.2 26.2
02:45 1010 29.83 840 24.81 11.2 52.1 36 -3.2 26.3
02:50 1010 29.83 839 24.78 11.3 52.3 36 -3.4 25.9
02:55 1010 29.83 839 24.78 11.6 52.8 34 -3.9 25
03:00 1010 29.83 839 24.78 11.8 53.2 33 -3.9 25.1
03:05 1010 29.83 839 24.78 11.9 53.4 34 -3.5 25.7
03:10 1010 29.83 839 24.78 11.9 53.4 34 -3.4 25.8
03:15 1010 29.83 839 24.78 11.6 52.9 35 -3.2 26.2
03:20 1010 29.83 839 24.78 11.4 52.6 35 -3.4 25.9
03:25 1010 29.83 839 24.78 11.4 52.4 35 -3.6 25.6
03:30 1010 29.83 839 24.78 11.4 52.4 36 -3.2 26.3
03:35 1010 29.83 839 24.78 11.1 51.9 36 -3.5 25.6
03:40 1010 29.83 839 24.78 11.2 52.2 33 -4.3 24.3
03:45 1010 29.83 839 24.78 11.4 52.5 35 -3.5 25.7
03:50 1010 29.83 839 24.78 11.1 51.9 36 -3.5 25.7
03:55 1010 29.83 839 24.78 11.1 51.9 35 -3.6 25.5
04:00 1010 29.83 839 24.78 11 51.7 36 -3.3 26
04:05 1010 29.83 839 24.78 10.9 51.7 36 -3.6 25.5
04:10 1010 29.83 839 24.78 10.9 51.7 36 -3.4 25.9
04:15 1010 29.83 839 24.78 10.7 51.2 37 -3.4 25.9
04:20 1010 29.83 839 24.78 10.7 51.2 37 -3.5 25.7
04:25 1010 29.83 839 24.78 10.6 51 37 -3.4 25.9
04:30 1010 29.83 839 24.78 10.4 50.8 38 -3.2 26.2
04:35 1010 29.83 839 24.78 10.1 50.2 40 -3 26.7
04:40 1010 29.83 839 24.78 9.8 49.6 40 -3 26.6
04:45 1010 29.83 839 24.78 9.6 49.4 40 -3.2 26.3
04:50 1010 29.83 839 24.78 9.6 49.2 41 -3.1 26.4
04:55 1010 29.83 839 24.78 9.5 49.1 41 -3.1 26.5
05:00 1010 29.83 839 24.78 9.2 48.5 45 -2.2 28
05:05 1010 29.83 839 24.78 8.5 47.2 47 -2.1 28.2
05:10 1010 29.83 839 24.78 7.9 46.1 52 -1.3 29.6
05:15 1010 29.83 839 24.78 7.1 44.8 54 -1.5 29.4
05:20 1010 29.83 839 24.78 7 44.5 55 -1.4 29.5
05:25 1010 29.83 839 24.78 7 44.6 55 -1.4 29.4
05:30 1010 29.83 839 24.78 7.1 44.8 54 -1.4 29.4
05:35 1010 29.83 839 24.78 7.2 45 54 -1.5 29.4
05:40 1010 29.83 839 24.78 7.4 45.2 55 -1.2 29.9
05:45 1010 29.83 840 24.81 7.2 45 55 -1.3 29.7
05:50 1011 29.85 840 24.81 7.4 45.3 53 -1.4 29.4
05:55 1011 29.85 840 24.81 7.7 45.8 53 -1.4 29.6
06:00 1011 29.85 840 24.81 7.6 45.6 55 -0.8 30.5
06:05 1011 29.85 840 24.81 6.9 44.5 59 -0.4 31.2
06:10 1012 29.88 841 24.83 6.5 43.7 63 -0.1 31.8
06:15 1012 29.88 841 24.83 5.9 42.7 70 0.9 33.6
06:20 1012 29.88 841 24.83 4.9 40.9 78 1.4 34.4
06:25 1012 29.88 841 24.83 4.2 39.6 81 1.3 34.3
06:30 1012 29.88 841 24.83 3.8 38.8 84 1.4 34.5
06:35 1012 29.88 841 24.83 3.4 38 87 1.4 34.6
06:40 1012 29.88 841 24.83 3.2 37.8 88 1.4 34.5
06:45 1012 29.88 841 24.83 3 37.4 88 1.3 34.3
06:50 1012 29.88 841 24.83 3.1 37.7 88 1.3 34.3
06:55 1012 29.88 841 24.83 3.2 37.7 87 1.2 34.1
07:00 1012 29.88 841 24.83 3.2 37.8 87 1.2 34.2
07:05 1012 29.88 841 24.83 3.4 38 86 1.3 34.3
07:10 1012 29.88 841 24.83 3.4 38.1 86 1.3 34.3
07:15 1012 29.88 841 24.83 3.5 38.2 85 1.2 34.2
07:20 1012 29.88 841 24.83 3.3 38 87 1.4 34.6
07:25 1012 29.88 841 24.83 3.2 37.8 87 1.3 34.4
07:30 1012 29.88 841 24.83 3.2 37.8 87 1.3 34.3
07:35 1012 29.88 841 24.83 3 37.3 90 1.5 34.7
07:40 1012 29.88 841 24.83 3.1 37.6 87 1.1 34
07:45 1012 29.88 841 24.83 3.3 37.9 87 1.3 34.4
07:50 1012 29.88 841 24.83 3.3 37.9 88 1.5 34.7
07:55 1012 29.88 841 24.83 3 37.3 90 1.5 34.6
08:00 1012 29.88 841 24.83 2.8 37 91 1.4 34.6
08:05 1012 29.88 842 24.86 2.7 36.9 90 1.3 34.4
08:10 1013 29.91 842 24.86 2.9 37.2 89 1.2 34.2
08:15 1013 29.91 842 24.86 3 37.5 88 1.2 34.2
08:20 1013 29.91 842 24.86 3.1 37.6 87 1.2 34.1
08:25 1013 29.91 842 24.86 3.2 37.8 88 1.4 34.5
08:30 1013 29.91 842 24.86 3.1 37.6 89 1.5 34.7
08:35 1013 29.91 842 24.86 2.6 36.7 90 1 33.9
08:40 1013 29.91 842 24.86 2.1 35.8 91 0.7 33.3
08:45 1013 29.91 842 24.86 1.8 35.3 92 0.6 33.1
08:50 1013 29.91 842 24.86 1.8 35.3 92 0.6 33.1
08:55 1013 29.91 842 24.86 1.7 35.1 92 0.5 32.9
09:00 1013 29.91 842 24.86 1.8 35.2 92 0.6 33.1
09:05 1013 29.91 842 24.86 1.7 35.1 93 0.6 33.1
09:10 1013 29.91 842 24.86 1.4 34.5 94 0.6 33
09:15 1013 29.91 842 24.86 1.3 34.3 95 0.6 33.1
09:20 1013 29.91 842 24.86 1.4 34.5 95 0.7 33.3
09:25 1013 29.91 842 24.86 1.8 35.3 93 0.9 33.5
09:30 1013 29.91 843 24.89 1.9 35.3 93 0.8 33.5
09:35 1013 29.91 843 24.89 1.5 34.7 94 0.7 33.3
09:40 1013 29.91 843 24.89 1.4 34.5 95 0.7 33.2
09:45 1013 29.91 843 24.89 1.3 34.4 95 0.7 33.2
09:50 1013 29.91 843 24.89 1.4 34.6 96 0.8 33.5
09:55 1013 29.91 842 24.86 1.5 34.7 96 0.9 33.6
10:00 1013 29.91 842 24.86 1.6 34.9 96 1.1 34
10:05 1013 29.91 842 24.86 1.9 35.4 95 1.2 34.1
10:10 1013 29.91 842 24.86 1.8 35.3 95 1.1 33.9
10:15 1013 29.91 842 24.86 2.3 36.2 94 1.4 34.5
10:20 1013 29.91 842 24.86 2.9 37.2 89 1.3 34.4
10:25 1013 29.91 842 24.86 3.4 38.1 89 1.7 35.1
10:30 1013 29.91 842 24.86 3.6 38.4 89 1.9 35.5
10:35 1013 29.91 842 24.86 3.6 38.4 90 2.1 35.7
10:40 1013 29.91 842 24.86 3.7 38.7 86 1.6 34.9
10:45 1013 29.91 842 24.86 3.9 39 85 1.7 35
10:50 1012 29.88 842 24.86 5 41 80 1.9 35.5
10:55 1012 29.88 842 24.86 5.5 41.9 80 2.3 36.1
11:00 1012 29.88 842 24.86 5.7 42.3 79 2.3 36.2
11:05 1012 29.88 842 24.86 6.4 43.5 76 2.4 36.3
11:10 1012 29.88 841 24.83 6.3 43.3 76 2.4 36.3
11:15 1012 29.88 841 24.83 5.9 42.7 75 1.9 35.4
11:20 1012 29.88 841 24.83 6.4 43.6 74 2.2 36
11:25 1012 29.88 841 24.83 6.2 43.2 77 2.5 36.5
11:30 1012 29.88 841 24.83 6.4 43.5 74 2 35.7
11:35 1012 29.88 841 24.83 7.2 44.9 70 2 35.6
11:40 1012 29.88 841 24.83 6.8 44.3 69 1.5 34.7
11:45 1012 29.88 841 24.83 7.7 45.8 61 0.6 33.1
11:50 1012 29.88 841 24.83 8.2 46.8 59 0.8 33.4
11:55 1012 29.88 841 24.83 8.4 47.1 56 0.2 32.3
12:00 1012 29.88 841 24.83 8.5 47.4 57 0.5 33
12:05 1012 29.88 841 24.83 8.5 47.4 56 0.3 32.6
12:10 1012 29.88 841 24.83 9 48.2 60 1.7 35.1
12:15 1012 29.88 841 24.83 8.9 48 58 1.2 34.1
12:20 1012 29.88 841 24.83 9.1 48.4 57 1 33.9
12:25 1012 29.88 841 24.83 8.6 47.5 57 0.6 33.1
12:30 1011 29.85 841 24.83 9.1 48.3 54 0.4 32.7
12:35 1011 29.85 841 24.83 9.5 49 55 0.9 33.7
12:40 1011 29.85 840 24.81 10 50 53 0.8 33.4
12:45 1011 29.85 840 24.81 10.2 50.3 53 1.2 34.2
12:50 1011 29.85 840 24.81 8.8 47.8 56 0.6 33.1
12:55 1011 29.85 840 24.81 8.5 47.3 56 0.3 32.6
13:00 1011 29.85 840 24.81 8.5 47.2 57 0.4 32.7
13:05 1011 29.85 840 24.81 9.1 48.3 54 0.2 32.4
13:10 1011 29.85 840 24.81 8.7 47.6 54 0.1 32.1
13:15 1011 29.85 840 24.81 8.4 47.1 55 -0.1 31.9
13:20 1010 29.83 840 24.81 8.4 47.1 53 -0.5 31
13:25 1010 29.83 840 24.81 9.1 48.5 52 -0.2 31.6
13:30 1010 29.83 839 24.78 9.2 48.5 50 -0.6 30.9
13:35 1010 29.83 839 24.78 9.4 49 51 -0.3 31.5
13:40 1010 29.83 839 24.78 9.7 49.5 51 0.1 32.1
13:45 1010 29.83 839 24.78 8.9 48.1 55 0.5 32.9
13:50 1010 29.83 839 24.78 8.6 47.4 57 0.6 33.1
13:55 1010 29.83 839 24.78 8.6 47.4 58 0.9 33.6
14:00 1010 29.83 839 24.78 8.6 47.5 58 0.9 33.6
14:05 1010 29.83 839 24.78 8.6 47.4 60 1.3 34.4
14:10 1010 29.83 839 24.78 8.7 47.6 58 0.8 33.4
14:15 1010 29.83 839 24.78 8.8 47.9 59 1.3 34.3
14:20 1009 29.8 839 24.78 9 48.1 60 1.5 34.8
14:25 1009 29.8 839 24.78 8.8 47.8 60 1.6 34.8
14:30 1009 29.8 839 24.78 9.3 48.8 57 1.4 34.5
14:35 1010 29.83 839 24.78 9.6 49.3 56 1.3 34.3
14:40 1009 29.8 839 24.78 9.6 49.2 45 -1.8 28.7
14:45 1009 29.8 839 24.78 10.8 51.5 42 -1.5 29.2
14:50 1009 29.8 839 24.78 11.1 52 42 -1.4 29.5
14:55 1009 29.8 839 24.78 11.2 52.2 41 -1.5 29.4
15:00 1009 29.8 838 24.75 11.7 53.1 40 -1.3 29.6
15:05 1009 29.8 838 24.75 12.1 53.7 37 -2 28.3
15:10 1009 29.8 838 24.75 12.6 54.7 35 -2.5 27.5
15:15 1009 29.8 838 24.75 12.5 54.4 34 -3 26.5
15:20 1009 29.8 838 24.75 12.6 54.7 33 -3.1 26.5
15:25 1009 29.8 838 24.75 12.5 54.4 33 -3.4 25.9
15:30 1009 29.8 839 24.78 12.1 53.7 34 -3.1 26.4
15:35 1009 29.8 838 24.75 12.6 54.7 34 -2.9 26.8
15:40 1009 29.8 838 24.75 11 51.8 36 -3.5 25.8
15:45 1009 29.8 838 24.75 10.1 50.1 35 -4.5 23.9
15:50 1009 29.8 838 24.75 10.3 50.5 36 -3.9 24.9
15:55 1009 29.8 838 24.75 10.5 51 35 -4.3 24.2
16:00 1009 29.8 838 24.75 10.2 50.4 31 -6.2 20.8
16:05 1009 29.8 838 24.75 10.2 50.4 34 -5 23
16:10 1009 29.8 838 24.75 10.7 51.3 34 -4.6 23.7
16:15 1009 29.8 838 24.75 10.7 51.3 36 -3.7 25.3
16:20 1009 29.8 839 24.78 10.4 50.8 39 -3 26.6
16:25 1009 29.8 839 24.78 10.3 50.6 37 -3.9 25.1
16:30 1009 29.8 839 24.78 9.9 49.9 38 -3.6 25.5
16:35 1009 29.8 839 24.78 9.9 49.7 37 -4.3 24.3
16:40 1009 29.8 839 24.78 9.9 49.9 33 -5.5 22.2
16:45 1009 29.8 839 24.78 10 49.9 34 -5.1 22.9
16:50 1009 29.8 839 24.78 9.9 49.9 38 -3.9 25
16:55 1009 29.8 839 24.78 9.8 49.6 38 -3.8 25.1
17:00 1009 29.8 839 24.78 9.6 49.2 43 -2.4 27.6
17:05 1010 29.83 839 24.78 8.8 47.9 51 -0.6 30.9
17:10 1010 29.83 839 24.78 8.2 46.7 56 -0.1 31.7
17:15 1010 29.83 839 24.78 7.5 45.5 60 0.2 32.4
17:20 1010 29.83 839 24.78 7 44.6 62 0.1 32.2
17:25 1010 29.83 840 24.81 6.7 44.1 61 -0.3 31.4
17:30 1011 29.85 840 24.81 6.5 43.8 62 -0.1 31.8
17:35 1011 29.85 840 24.81 5.5 41.8 67 -0.1 31.9
17:40 1011 29.85 840 24.81 4.5 40.1 71 -0.4 31.3
17:45 1011 29.85 841 24.83 4.1 39.4 72 -0.4 31.3
17:50 1011 29.85 841 24.83 3.9 39 75 -0.1 31.7
17:55 1011 29.85 840 24.81 3.7 38.7 79 0.3 32.6
18:00 1012 29.88 841 24.83 3.5 38.3 80 0.4 32.7
18:05 1012 29.88 841 24.83 3.6 38.4 80 0.4 32.8
18:10 1012 29.88 841 24.83 3.5 38.2 81 0.5 32.8
18:15 1012 29.88 841 24.83 3.5 38.3 80 0.4 32.6
18:20 1012 29.88 841 24.83 3.5 38.3 81 0.6 33
18:25 1012 29.88 841 24.83 3.3 38 84 0.8 33.4
18:30 1012 29.88 841 24.83 2.9 37.2 85 0.6 33
18:35 1012 29.88 841 24.83 2.6 36.7 85 0.3 32.5
18:40 1012 29.88 841 24.83 2.6 36.6 84 0.1 32.2
18:45 1012 29.88 841 24.83 2.5 36.6 84 0.1 32.3
18:50 1012 29.88 842 24.86 2.6 36.6 84 0.2 32.3
18:55 1012 29.88 841 24.83 2.4 36.3 85 0.2 32.4
19:00 1012 29.88 841 24.83 2.5 36.5 85 0.2 32.3
19:05 1012 29.88 841 24.83 2.4 36.3 85 0.2 32.4
19:10 1012 29.88 841 24.83 2.4 36.4 85 0.1 32.2
19:15 1012 29.88 842 24.86 2.5 36.5 84 0.1 32.1
19:20 1012 29.88 842 24.86 2.5 36.5 86 0.3 32.6
19:25 1012 29.88 842 24.86 2.7 36.8 83 0.1 32.1
19:30 1012 29.88 842 24.86 2.6 36.7 83 0 32.1
19:35 1013 29.91 842 24.86 2.7 36.9 83 0.1 32.2
19:40 1013 29.91 842 24.86 2.8 37.1 82 0.1 32.1
19:45 1013 29.91 842 24.86 2.7 36.9 81 -0.2 31.6
19:50 1013 29.91 842 24.86 2.8 37 82 0 32
19:55 1013 29.91 842 24.86 3 37.3 80 -0.2 31.7
20:00 1013 29.91 842 24.86 2.8 37.1 82 -0 31.9
20:05 1013 29.91 842 24.86 2.8 37.1 81 -0.1 31.8
20:10 1013 29.91 842 24.86 2.9 37.2 80 -0.2 31.7
20:15 1013 29.91 842 24.86 2.8 37.1 82 -0 32
20:20 1013 29.91 842 24.86 2.5 36.5 84 0.1 32.2
20:25 1013 29.91 842 24.86 2.1 35.8 86 0.1 32.1
20:30 1012 29.88 842 24.86 1.5 34.7 89 -0.2 31.7
20:35 1013 29.91 842 24.86 1.3 34.3 90 -0.2 31.7
20:40 1012 29.88 842 24.86 1.3 34.3 91 -0.1 31.8
20:45 1012 29.88 842 24.86 1.3 34.3 91 -0.1 31.9
20:50 1012 29.88 841 24.83 1.2 34.1 91 -0.1 31.8
20:55 1012 29.88 841 24.83 1.1 33.9 91 -0.2 31.6
21:00 1012 29.88 841 24.83 1 33.9 91 -0.3 31.5
21:05 1012 29.88 841 24.83 1 33.8 91 -0.4 31.4
21:10 1012 29.88 841 24.83 1 33.7 91 -0.3 31.4
21:15 1012 29.88 841 24.83 0.9 33.6 91 -0.4 31.3
21:20 1012 29.88 841 24.83 0.8 33.5 91 -0.5 31.2
21:25 1012 29.88 841 24.83 0.8 33.4 91 -0.6 31
21:30 1012 29.88 841 24.83 0.8 33.4 91 -0.6 30.9
21:35 1012 29.88 841 24.83 0.8 33.4 90 -0.7 30.8
21:40 1012 29.88 841 24.83 0.6 33 91 -0.7 30.8
21:45 1012 29.88 841 24.83 0.4 32.7 92 -0.8 30.6
21:50 1011 29.85 841 24.83 0.4 32.7 91 -0.9 30.4
21:55 1011 29.85 840 24.81 0.5 32.8 89 -1.1 30
22:00 1011 29.85 840 24.81 0.6 33 89 -1.1 30.1
22:05 1011 29.85 840 24.81 0.5 32.9 89 -1.2 29.9
22:10 1011 29.85 840 24.81 0.6 33.1 88 -1.2 29.9
22:15 1011 29.85 840 24.81 0.7 33.2 88 -1.2 29.9
22:20 1011 29.85 840 24.81 0.7 33.2 87 -1.2 29.8
22:25 1011 29.85 840 24.81 0.6 33 88 -1.2 29.9
22:30 1011 29.85 840 24.81 0.3 32.6 89 -1.3 29.6
22:35 1011 29.85 840 24.81 0.3 32.5 89 -1.3 29.6
22:40 1011 29.85 840 24.81 0.4 32.7 88 -1.4 29.5
22:45 1011 29.85 840 24.81 0.5 32.8 88 -1.3 29.7
22:50 1010 29.83 840 24.81 0.5 32.8 88 -1.3 29.6
22:55 1010 29.83 840 24.81 0.5 33 87 -1.4 29.5
23:00 1010 29.83 839 24.78 0.5 32.9 87 -1.4 29.5
23:05 1010 29.83 839 24.78 0.5 32.8 87 -1.5 29.4
23:10 1010 29.83 839 24.78 0.5 32.9 87 -1.5 29.3
23:15 1010 29.83 839 24.78 0.4 32.8 87 -1.5 29.3
23:20 1010 29.83 839 24.78 0.3 32.6 88 -1.5 29.3
23:25 1010 29.83 839 24.78 0.4 32.7 87 -1.6 29.2
23:30 1010 29.83 839 24.78 0.5 32.9 85 -1.8 28.8
23:35 1010 29.83 839 24.78 0.6 33 85 -1.7 28.9
23:40 1010 29.83 839 24.78 0.5 32.8 85 -1.8 28.8
23:45 1010 29.83 839 24.78 0.3 32.6 86 -1.8 28.8
23:50 1010 29.83 839 24.78 0.3 32.5 84 -2.1 28.3
23:55 1010 29.83 839 24.78 0.4 32.7 84 -2 28.4
24:00 1010 29.83 839 24.78 0.4 32.7 84 -2 28.4